Time;durP1;ratioP1;P1;durP2;ratioP2;P2;SDS_P1;SDS_P2;PMS_P1;PMS_P2;Temp;Humidity;BMP_temperature;BMP_pressure;BME280_temperature;BME280_humidity;BME280_pressure;Samples;Min_cycle;Max_cycle;Signal;HPM_P1;HPM_P2
2022/07/21 00:02:05;;;;;;;17.17;11.57;;;19.30;81.00;;;;;;5026564;28;20104;-70
2022/07/21 00:04:30;;;;;;;18.13;11.15;;;19.40;81.00;;;;;;5031775;28;20025;-70
2022/07/21 00:06:56;;;;;;;20.50;10.98;;;19.30;81.20;;;;;;5023482;28;20101;-70
2022/07/21 00:09:21;;;;;;;27.20;12.85;;;19.30;81.10;;;;;;5032189;28;20032;-70
2022/07/21 00:11:47;;;;;;;18.10;11.90;;;19.30;81.10;;;;;;5028285;28;20041;-70
2022/07/21 00:14:13;;;;;;;16.65;10.85;;;19.30;81.10;;;;;;5026813;28;20380;-71
2022/07/21 00:16:40;;;;;;;20.42;10.95;;;19.20;81.30;;;;;;5024602;28;20362;-70
2022/07/21 00:19:06;;;;;;;16.85;11.00;;;19.10;81.80;;;;;;5030894;28;20385;-70
2022/07/21 00:21:31;;;;;;;18.20;11.68;;;19.20;81.70;;;;;;5028961;28;20522;-71
2022/07/21 00:23:57;;;;;;;18.73;12.43;;;19.10;81.80;;;;;;5031167;28;20065;-70
2022/07/21 00:26:22;;;;;;;18.33;11.50;;;19.20;81.90;;;;;;5026710;28;20414;-70
2022/07/21 00:28:48;;;;;;;22.80;14.05;;;19.10;81.90;;;;;;5031722;28;20385;-70
2022/07/21 00:31:14;;;;;;;19.02;12.88;;;19.10;82.20;;;;;;5028248;28;20860;-70
2022/07/21 00:33:40;;;;;;;17.08;11.82;;;19.20;82.20;;;;;;5029432;28;20041;-70
2022/07/21 00:36:06;;;;;;;19.02;11.60;;;19.00;82.60;;;;;;5027312;28;20026;-70
2022/07/21 00:38:31;;;;;;;19.17;11.73;;;19.00;83.00;;;;;;5028950;28;20061;-70
2022/07/21 00:40:57;;;;;;;19.80;12.60;;;18.90;83.20;;;;;;5017264;28;20048;-70
2022/07/21 00:43:22;;;;;;;21.83;13.32;;;18.80;83.70;;;;;;5028937;28;20090;-70
2022/07/21 00:45:48;;;;;;;24.05;12.77;;;18.70;83.90;;;;;;5025652;28;20162;-70
2022/07/21 00:48:14;;;;;;;19.08;13.48;;;18.70;84.20;;;;;;5027188;28;20036;-70
2022/07/21 00:50:39;;;;;;;21.35;13.32;;;18.80;84.20;;;;;;5025662;28;20034;-70
2022/07/21 00:53:05;;;;;;;23.73;13.80;;;18.70;84.30;;;;;;5024039;28;20350;-70
2022/07/21 00:55:30;;;;;;;22.15;14.05;;;18.60;84.60;;;;;;5028489;28;20026;-70
2022/07/21 00:57:56;;;;;;;23.10;14.52;;;18.60;85.10;;;;;;5025788;28;20402;-70
2022/07/21 01:00:26;;;;;;;21.23;14.35;;;18.40;85.60;;;;;;5030491;28;20481;-70
2022/07/21 01:02:51;;;;;;;20.63;14.50;;;18.30;86.00;;;;;;5028225;28;20164;-70
2022/07/21 01:05:18;;;;;;;22.98;13.57;;;18.20;87.10;;;;;;5020154;28;20672;-70
2022/07/21 01:07:50;;;;;;;17.15;12.13;;;18.20;87.30;;;;;;5018297;28;20064;-70
2022/07/21 01:10:16;;;;;;;20.52;11.45;;;18.10;87.50;;;;;;5028679;28;20033;-70
2022/07/21 01:12:43;;;;;;;18.40;11.57;;;18.20;87.50;;;;;;5027767;28;20057;-70
2022/07/21 01:15:10;;;;;;;16.73;10.82;;;18.30;87.10;;;;;;5026799;28;20056;-70
2022/07/21 01:17:37;;;;;;;16.58;10.57;;;18.20;87.30;;;;;;5019523;28;20041;-70
2022/07/21 01:20:11;;;;;;;16.65;11.07;;;18.20;87.70;;;;;;5020376;28;20034;-70
2022/07/21 01:22:39;;;;;;;20.45;10.52;;;18.30;87.50;;;;;;5027696;28;20041;-70
2022/07/21 01:25:06;;;;;;;17.05;10.95;;;18.40;87.50;;;;;;5027368;28;20072;-70
2022/07/21 01:27:32;;;;;;;22.27;11.98;;;18.40;87.40;;;;;;5028720;28;20438;-70
2022/07/21 01:29:58;;;;;;;18.92;10.63;;;18.40;87.50;;;;;;5024637;28;20040;-70
2022/07/21 01:32:24;;;;;;;17.15;10.70;;;18.30;88.10;;;;;;5024960;28;21285;-70
2022/07/21 01:34:49;;;;;;;23.50;11.55;;;18.40;88.00;;;;;;5026978;28;20033;-70
2022/07/21 01:37:19;;;;;;;18.08;11.75;;;18.40;88.00;;;;;;5029389;28;20083;-70
2022/07/21 01:42:31;;;;;;;21.40;10.88;;;18.50;88.40;;;;;;5018755;28;20090;-70
2022/07/21 01:44:57;;;;;;;16.80;10.18;;;18.40;88.10;;;;;;5021615;28;20049;-70
2022/07/21 01:47:22;;;;;;;16.48;10.27;;;18.50;88.30;;;;;;5027291;28;20065;-70
2022/07/21 01:49:48;;;;;;;16.77;10.35;;;18.50;88.30;;;;;;5025432;28;20079;-70
2022/07/21 01:52:13;;;;;;;15.88;10.13;;;18.50;88.30;;;;;;5026278;28;20025;-70
2022/07/21 01:54:39;;;;;;;16.33;10.43;;;18.50;88.00;;;;;;5027279;28;20048;-70
2022/07/21 01:57:04;;;;;;;20.88;10.32;;;18.50;88.10;;;;;;5027448;28;20035;-70
2022/07/21 01:59:30;;;;;;;19.00;10.82;;;18.40;88.60;;;;;;5027557;28;20025;-70
2022/07/21 02:01:55;;;;;;;19.70;11.07;;;18.30;88.70;;;;;;5026590;28;20029;-70
2022/07/21 02:04:21;;;;;;;17.98;9.80;;;18.40;88.60;;;;;;5022284;28;20045;-70
2022/07/21 02:06:47;;;;;;;21.65;10.43;;;18.40;88.50;;;;;;5025384;28;20509;-70
2022/07/21 02:09:12;;;;;;;20.27;9.65;;;18.50;88.40;;;;;;5029203;28;20025;-70
2022/07/21 02:11:38;;;;;;;16.98;9.93;;;18.50;88.30;;;;;;5021074;28;20160;-70
2022/07/21 02:14:04;;;;;;;17.77;9.77;;;18.40;88.30;;;;;;5027933;28;20030;-70
2022/07/21 02:16:30;;;;;;;19.85;10.48;;;18.40;88.50;;;;;;5013041;28;20040;-70
2022/07/21 02:18:56;;;;;;;18.35;9.77;;;18.30;88.50;;;;;;5028276;28;20032;-70
2022/07/21 02:21:21;;;;;;;21.15;10.00;;;18.40;88.40;;;;;;5027408;28;20049;-70
2022/07/21 02:23:47;;;;;;;16.60;9.60;;;18.30;88.40;;;;;;5023928;28;20041;-70
2022/07/21 02:26:12;;;;;;;15.50;9.75;;;18.30;88.80;;;;;;5027721;28;20103;-70
2022/07/21 02:28:38;;;;;;;21.13;10.18;;;18.30;88.70;;;;;;5026524;28;20025;-70
2022/07/21 02:31:04;;;;;;;16.17;9.60;;;18.30;88.70;;;;;;5028922;28;20465;-70
2022/07/21 02:33:30;;;;;;;15.32;9.90;;;18.20;88.70;;;;;;5026495;28;20400;-70
2022/07/21 02:35:56;;;;;;;15.18;9.68;;;18.10;89.10;;;;;;5021648;28;20025;-70
2022/07/21 02:38:21;;;;;;;18.30;9.20;;;18.20;89.00;;;;;;5028256;28;20128;-70
2022/07/21 02:40:47;;;;;;;14.60;8.73;;;18.20;89.00;;;;;;5023040;28;20037;-70
2022/07/21 02:43:12;;;;;;;16.50;9.52;;;18.20;89.00;;;;;;5028034;28;20084;-70
2022/07/21 02:45:39;;;;;;;14.80;9.20;;;18.20;89.00;;;;;;5023035;28;20033;-70
2022/07/21 02:48:07;;;;;;;19.73;9.25;;;18.30;88.80;;;;;;5029883;28;20116;-70
2022/07/21 02:50:35;;;;;;;15.13;8.70;;;18.30;88.50;;;;;;5029217;28;20065;-70
2022/07/21 02:53:06;;;;;;;12.38;8.13;;;18.30;88.30;;;;;;5029801;28;20029;-70
2022/07/21 02:55:31;;;;;;;;;;;18.30;88.60;;;;;;5028989;28;20025;-70
2022/07/21 02:58:17;;;;;;;14.63;7.63;;;18.30;88.70;;;;;;5030369;28;19920;-70
2022/07/21 03:00:50;;;;;;;14.38;7.80;;;18.30;88.50;;;;;;5029010;28;20039;-70
2022/07/21 03:03:15;;;;;;;12.93;7.65;;;18.20;88.80;;;;;;5021425;28;20119;-70
2022/07/21 03:05:41;;;;;;;16.52;7.25;;;18.20;89.00;;;;;;5023978;28;20495;-70
2022/07/21 03:08:09;;;;;;;15.82;7.80;;;18.10;89.40;;;;;;5030277;28;20132;-70
2022/07/21 03:10:36;;;;;;;17.25;7.32;;;18.10;89.40;;;;;;5024662;28;20037;-70
2022/07/21 03:13:03;;;;;;;16.60;8.13;;;18.20;89.20;;;;;;5016804;28;20024;-70
2022/07/21 03:15:28;;;;;;;14.60;7.65;;;18.20;89.10;;;;;;5030852;28;20041;-70
2022/07/21 03:17:54;;;;;;;16.45;7.35;;;18.30;89.00;;;;;;5028442;28;20037;-70
2022/07/21 03:20:26;;;;;;;13.70;7.22;;;18.30;88.90;;;;;;5030081;28;20369;-70
2022/07/21 03:22:51;;;;;;;16.17;7.30;;;18.40;89.00;;;;;;5025447;28;20259;-70
2022/07/21 03:25:17;;;;;;;11.40;7.25;;;18.40;88.70;;;;;;5022558;28;20077;-70
2022/07/21 03:27:44;;;;;;;10.73;6.63;;;18.30;89.10;;;;;;5027222;28;20052;-70
2022/07/21 03:30:10;;;;;;;17.63;7.00;;;18.50;89.10;;;;;;5030751;28;20049;-70
2022/07/21 03:32:36;;;;;;;11.57;6.53;;;18.50;89.10;;;;;;5028827;28;20021;-70
2022/07/21 03:35:04;;;;;;;13.02;6.20;;;18.50;88.90;;;;;;5028670;28;20032;-70
2022/07/21 03:37:30;;;;;;;15.57;6.30;;;18.60;88.80;;;;;;5030168;28;20069;-70
2022/07/21 03:39:56;;;;;;;15.63;6.22;;;18.60;88.70;;;;;;5030698;28;20179;-70
2022/07/21 03:42:21;;;;;;;10.52;6.00;;;18.60;88.70;;;;;;5023421;28;20188;-70
2022/07/21 03:44:47;;;;;;;10.65;6.35;;;18.60;88.60;;;;;;5030629;28;20052;-70
2022/07/21 03:47:13;;;;;;;14.82;6.25;;;18.60;88.90;;;;;;5026862;28;20037;-70
2022/07/21 03:49:38;;;;;;;12.38;6.55;;;18.70;88.80;;;;;;5025680;28;20021;-70
2022/07/21 03:52:04;;;;;;;10.02;5.82;;;18.70;88.70;;;;;;5027471;28;20284;-70
2022/07/21 03:54:29;;;;;;;10.50;5.40;;;18.70;88.70;;;;;;5025261;28;20112;-70
2022/07/21 03:56:55;;;;;;;12.82;5.68;;;18.80;88.50;;;;;;5018865;28;20068;-70
2022/07/21 03:59:20;;;;;;;13.20;6.03;;;18.80;88.50;;;;;;5028181;28;20473;-70
2022/07/21 04:01:46;;;;;;;11.93;5.28;;;18.90;88.30;;;;;;5027686;28;20053;-70
2022/07/21 04:04:11;;;;;;;16.40;6.03;;;18.90;88.20;;;;;;5027967;28;20026;-70
2022/07/21 04:06:37;;;;;;;11.48;6.25;;;18.80;88.40;;;;;;5030588;28;20104;-70
2022/07/21 04:09:08;;;;;;;12.20;5.63;;;18.90;88.40;;;;;;5027747;28;20021;-70
2022/07/21 04:11:33;;;;;;;;;;;18.90;88.00;;;;;;5025617;28;20472;-70
2022/07/21 04:13:59;;;;;;;11.70;5.55;;;19.00;87.70;;;;;;5026052;28;19920;-70
2022/07/21 04:16:24;;;;;;;8.20;5.20;;;19.00;87.90;;;;;;5024517;28;21409;-70
2022/07/21 04:18:50;;;;;;;16.15;6.28;;;19.00;88.30;;;;;;5029121;28;20043;-70
2022/07/21 04:21:16;;;;;;;10.73;5.40;;;19.00;88.30;;;;;;5030764;28;20030;-70
2022/07/21 04:23:41;;;;;;;12.05;5.53;;;19.10;88.40;;;;;;5020531;28;20415;-70
2022/07/21 04:26:07;;;;;;;15.13;6.32;;;19.00;88.50;;;;;;5028992;28;20098;-70
2022/07/21 04:28:32;;;;;;;12.35;5.72;;;19.00;88.80;;;;;;5029370;28;20025;-67
2022/07/21 04:30:58;;;;;;;11.73;5.97;;;19.00;89.40;;;;;;5022005;28;20030;-67
2022/07/21 04:33:23;;;;;;;13.07;6.32;;;19.00;89.90;;;;;;5025922;28;20022;-67
2022/07/21 04:35:49;;;;;;;11.48;5.78;;;19.00;90.20;;;;;;5027730;28;20022;-67
2022/07/21 04:38:14;;;;;;;10.50;6.35;;;19.00;90.40;;;;;;5022535;28;20515;-67
2022/07/21 04:40:40;;;;;;;14.52;6.40;;;19.00;90.90;;;;;;5018493;28;20037;-67
2022/07/21 04:43:06;;;;;;;11.63;6.28;;;18.90;91.10;;;;;;5023614;28;20048;-67
2022/07/21 04:45:32;;;;;;;13.90;6.60;;;18.90;91.40;;;;;;5026969;28;20165;-67
2022/07/21 04:47:57;;;;;;;11.90;6.57;;;18.90;91.90;;;;;;5022502;28;20080;-67
2022/07/21 04:50:27;;;;;;;14.02;7.15;;;18.80;92.00;;;;;;5027608;28;20448;-67
2022/07/21 04:52:53;;;;;;;13.90;6.90;;;18.80;92.00;;;;;;5029341;28;20026;-67
2022/07/21 04:55:19;;;;;;;19.27;8.10;;;18.70;92.30;;;;;;5020877;28;20488;-67
2022/07/21 04:57:47;;;;;;;16.75;7.85;;;18.80;92.40;;;;;;5021358;28;20040;-67
2022/07/21 05:00:19;;;;;;;19.48;7.97;;;18.70;92.20;;;;;;5027543;28;20036;-67
2022/07/21 05:02:45;;;;;;;15.25;8.18;;;18.70;92.40;;;;;;5022027;28;20025;-67
2022/07/21 05:05:11;;;;;;;16.38;8.65;;;18.70;92.50;;;;;;5029179;28;20431;-67
2022/07/21 05:07:37;;;;;;;14.10;8.48;;;18.70;92.80;;;;;;5025679;28;20222;-67
2022/07/21 05:10:04;;;;;;;14.68;8.45;;;18.80;92.70;;;;;;5027096;28;20120;-67
2022/07/21 05:12:30;;;;;;;15.38;8.63;;;18.70;92.50;;;;;;5025571;28;20040;-67
2022/07/21 05:14:55;;;;;;;20.88;8.65;;;18.70;92.70;;;;;;5026746;28;20392;-67
2022/07/21 05:17:21;;;;;;;20.00;9.00;;;18.70;93.10;;;;;;5027567;28;20029;-67
2022/07/21 05:19:49;;;;;;;15.25;8.88;;;18.80;93.10;;;;;;5027120;28;20462;-67
2022/07/21 05:22:16;;;;;;;20.42;8.98;;;18.80;93.10;;;;;;5023382;28;20657;-67
2022/07/21 05:24:41;;;;;;;14.20;8.75;;;18.80;93.00;;;;;;5018331;28;20037;-67
2022/07/21 05:27:07;;;;;;;16.65;8.00;;;18.70;92.80;;;;;;5028552;28;20064;-67
2022/07/21 05:29:32;;;;;;;17.95;8.43;;;18.70;92.90;;;;;;5017913;28;20025;-67
2022/07/21 05:31:58;;;;;;;19.50;8.43;;;18.70;93.00;;;;;;5012583;28;20373;-67
2022/07/21 05:34:23;;;;;;;18.15;9.15;;;18.80;93.20;;;;;;5026448;28;20025;-67
2022/07/21 05:36:48;;;;;;;14.57;8.50;;;18.70;93.30;;;;;;5025787;28;20058;-67
2022/07/21 05:39:14;;;;;;;14.10;8.40;;;18.80;93.40;;;;;;5023369;28;20034;-67
2022/07/21 05:41:39;;;;;;;20.65;8.15;;;18.90;93.40;;;;;;5015047;28;20115;-67
2022/07/21 05:44:05;;;;;;;15.50;8.00;;;18.90;93.30;;;;;;5014505;28;20092;-67
2022/07/21 05:46:30;;;;;;;19.45;9.15;;;18.90;93.30;;;;;;5021920;28;20499;-67
2022/07/21 05:48:56;;;;;;;16.40;8.75;;;18.90;93.40;;;;;;5025659;28;20047;-67
2022/07/21 05:51:21;;;;;;;16.02;8.07;;;18.90;93.40;;;;;;5028260;28;20112;-67
2022/07/21 05:53:47;;;;;;;15.32;8.60;;;18.80;93.50;;;;;;5025194;28;20500;-67
2022/07/21 05:56:12;;;;;;;13.25;8.75;;;18.90;93.80;;;;;;5024775;28;20029;-67
2022/07/21 05:58:38;;;;;;;15.57;8.90;;;18.80;94.00;;;;;;5027396;28;20028;-67
2022/07/21 06:01:13;;;;;;;20.20;8.60;;;18.80;93.70;;;;;;5027598;28;20061;-67
2022/07/21 06:03:41;;;;;;;16.75;8.32;;;18.80;93.60;;;;;;5024870;28;20049;-68
2022/07/21 06:06:07;;;;;;;14.32;9.63;;;18.80;94.20;;;;;;5021512;28;20091;-68
2022/07/21 06:08:33;;;;;;;20.42;9.27;;;18.80;94.50;;;;;;5028362;28;20022;-68
2022/07/21 06:10:58;;;;;;;23.38;11.10;;;18.80;95.10;;;;;;5029534;28;20477;-68
2022/07/21 06:13:24;;;;;;;19.65;10.40;;;18.80;95.10;;;;;;5023277;28;20034;-68
2022/07/21 06:15:50;;;;;;;19.45;10.60;;;18.80;95.10;;;;;;5020151;28;20025;-68
2022/07/21 06:18:15;;;;;;;24.13;11.15;;;18.80;95.30;;;;;;5021959;28;20033;-68
2022/07/21 06:20:41;;;;;;;16.42;10.32;;;18.80;95.30;;;;;;5031975;28;20025;-68
2022/07/21 06:23:07;;;;;;;27.50;11.15;;;18.80;95.40;;;;;;5029675;28;20045;-68
2022/07/21 06:25:32;;;;;;;18.17;10.60;;;18.80;95.30;;;;;;5031793;28;20479;-68
2022/07/21 06:27:58;;;;;;;20.00;12.10;;;18.80;95.20;;;;;;5028417;28;20084;-68
2022/07/21 06:30:23;;;;;;;21.40;11.35;;;18.90;95.40;;;;;;5027087;28;20377;-68
2022/07/21 06:32:49;;;;;;;20.58;11.50;;;18.90;95.30;;;;;;5026997;28;20027;-68
2022/07/21 06:35:14;;;;;;;21.90;11.73;;;18.90;95.30;;;;;;5028082;28;20021;-68
2022/07/21 06:37:45;;;;;;;20.15;11.48;;;18.90;95.30;;;;;;5033186;28;20148;-68
2022/07/21 06:40:11;;;;;;;19.35;11.10;;;19.00;95.40;;;;;;5028804;28;20091;-68
2022/07/21 06:42:37;;;;;;;21.10;11.93;;;18.90;95.40;;;;;;5027008;28;20139;-69
2022/07/21 06:45:03;;;;;;;21.23;11.07;;;18.80;95.60;;;;;;5032518;28;20120;-68
2022/07/21 06:47:29;;;;;;;14.75;10.73;;;18.70;95.70;;;;;;5026859;28;20061;-69
2022/07/21 06:49:54;;;;;;;24.20;10.30;;;18.60;95.80;;;;;;5020589;28;20061;-68
2022/07/21 06:52:20;;;;;;;17.63;10.55;;;18.50;96.10;;;;;;5023516;28;20025;-69
2022/07/21 06:54:46;;;;;;;17.48;10.43;;;18.60;96.50;;;;;;5028130;28;20021;-69
2022/07/21 06:57:13;;;;;;;15.70;10.25;;;18.50;96.20;;;;;;5025319;28;20457;-69
2022/07/21 06:59:39;;;;;;;16.25;10.95;;;18.60;96.40;;;;;;5021982;28;20021;-69
2022/07/21 07:02:04;;;;;;;17.58;10.50;;;18.50;96.30;;;;;;5025588;28;20378;-69
2022/07/21 07:04:30;;;;;;;19.88;11.25;;;18.50;96.40;;;;;;5026348;28;20032;-68
2022/07/21 07:06:55;;;;;;;17.55;10.82;;;18.50;96.40;;;;;;5031748;28;20021;-69
2022/07/21 07:09:22;;;;;;;20.52;10.73;;;18.50;96.50;;;;;;5030943;28;20109;-68
2022/07/21 07:11:48;;;;;;;17.23;11.18;;;18.60;96.60;;;;;;5024494;28;20037;-69
2022/07/21 07:14:14;;;;;;;24.65;12.52;;;18.70;96.80;;;;;;5019781;28;20029;-69
2022/07/21 07:16:40;;;;;;;19.80;11.82;;;18.70;96.50;;;;;;5030250;28;20033;-69
2022/07/21 07:19:05;;;;;;;19.27;12.00;;;18.70;96.40;;;;;;5032069;28;20040;-69
2022/07/21 07:21:31;;;;;;;18.35;11.60;;;18.90;96.70;;;;;;5030616;28;20056;-69
2022/07/21 07:23:56;;;;;;;18.80;11.63;;;19.00;96.60;;;;;;5025349;28;20065;-69
2022/07/21 07:26:22;;;;;;;19.63;10.85;;;19.10;96.20;;;;;;5030451;28;20369;-69
2022/07/21 07:28:47;;;;;;;17.38;10.75;;;19.00;95.80;;;;;;5029339;28;20397;-69
2022/07/21 07:31:13;;;;;;;18.88;11.20;;;19.20;96.00;;;;;;5030387;28;20056;-69
2022/07/21 07:33:38;;;;;;;19.95;12.25;;;19.40;96.00;;;;;;5025442;28;20037;-69
2022/07/21 07:36:04;;;;;;;18.23;10.88;;;19.60;95.80;;;;;;5025231;28;20026;-69
2022/07/21 07:38:30;;;;;;;25.08;10.90;;;19.50;95.40;;;;;;5020972;28;20073;-69
2022/07/21 07:40:55;;;;;;;16.35;9.98;;;19.80;95.40;;;;;;5022783;28;20070;-69
2022/07/21 07:43:21;;;;;;;15.73;10.48;;;20.00;95.10;;;;;;5038621;28;20422;-68
2022/07/21 07:45:46;;;;;;;17.10;9.25;;;20.30;94.90;;;;;;5027909;28;20481;-68
2022/07/21 07:48:12;;;;;;;15.63;8.98;;;20.50;93.80;;;;;;5031597;28;20025;-68
2022/07/21 07:50:37;;;;;;;16.83;9.10;;;20.60;93.20;;;;;;5030437;28;20029;-69
2022/07/21 07:53:03;;;;;;;16.13;9.10;;;21.00;93.50;;;;;;5027634;28;20053;-69
2022/07/21 07:55:28;;;;;;;18.90;9.85;;;21.50;92.90;;;;;;5024249;28;20132;-69
2022/07/21 07:57:54;;;;;;;15.52;8.52;;;21.50;91.30;;;;;;5020833;28;20021;-69
2022/07/21 08:00:20;;;;;;;16.60;8.70;;;21.60;90.70;;;;;;5025844;28;20481;-69
2022/07/21 08:02:45;;;;;;;13.07;8.40;;;21.50;88.90;;;;;;5021628;28;20026;-69
2022/07/21 08:05:11;;;;;;;17.02;9.52;;;21.30;89.40;;;;;;5028111;28;20040;-69
2022/07/21 08:07:39;;;;;;;14.02;8.43;;;21.70;89.40;;;;;;5030200;28;20484;-69
2022/07/21 08:10:06;;;;;;;16.92;9.20;;;21.70;89.30;;;;;;5024998;28;20030;-69
2022/07/21 08:12:32;;;;;;;16.85;8.85;;;21.50;88.10;;;;;;5019250;28;20017;-69
2022/07/21 08:14:57;;;;;;;18.13;9.70;;;21.30;89.00;;;;;;5029498;28;20333;-69
2022/07/21 08:17:23;;;;;;;15.48;8.65;;;21.00;89.10;;;;;;5008131;28;20025;-69
2022/07/21 08:19:48;;;;;;;15.93;9.98;;;20.90;90.30;;;;;;5023594;28;20481;-69
2022/07/21 08:22:14;;;;;;;14.00;8.85;;;20.90;90.60;;;;;;5026290;28;20030;-69
2022/07/21 08:24:39;;;;;;;13.77;9.07;;;21.00;90.80;;;;;;5026809;28;20038;-69
2022/07/21 08:27:05;;;;;;;12.30;8.90;;;20.90;90.40;;;;;;5019812;28;20029;-69
2022/07/21 08:29:30;;;;;;;13.65;7.85;;;20.90;90.90;;;;;;5030509;28;20107;-69
2022/07/21 08:31:56;;;;;;;12.75;7.85;;;20.60;90.70;;;;;;5023245;28;20029;-68
2022/07/21 08:34:21;;;;;;;9.20;6.45;;;20.50;90.40;;;;;;5025338;28;20022;-67
2022/07/21 08:36:47;;;;;;;13.43;6.60;;;20.50;90.30;;;;;;5018900;28;20468;-68
2022/07/21 08:39:12;;;;;;;10.52;6.22;;;20.50;90.50;;;;;;5026896;28;20120;-69
2022/07/21 08:41:40;;;;;;;8.60;5.95;;;20.50;89.90;;;;;;5026919;28;20169;-69
2022/07/21 08:44:07;;;;;;;9.18;5.95;;;20.50;89.60;;;;;;5024070;28;20025;-68
2022/07/21 08:46:34;;;;;;;10.52;6.20;;;20.50;89.20;;;;;;5022154;28;20037;-69
2022/07/21 08:49:02;;;;;;;11.52;6.15;;;20.60;89.00;;;;;;5020507;28;20028;-69
2022/07/21 08:51:32;;;;;;;9.95;6.15;;;20.60;88.50;;;;;;5024004;28;20056;-69
2022/07/21 08:53:58;;;;;;;9.10;5.63;;;20.70;88.00;;;;;;5026624;28;20025;-69
2022/07/21 08:56:23;;;;;;;10.48;5.80;;;20.90;87.40;;;;;;5020910;28;20351;-69
2022/07/21 08:58:49;;;;;;;6.80;4.93;;;21.00;86.70;;;;;;5025815;28;20056;-69
2022/07/21 09:01:14;;;;;;;9.52;5.82;;;21.30;85.60;;;;;;5026334;28;20041;-69
2022/07/21 09:03:40;;;;;;;12.85;6.05;;;21.50;85.40;;;;;;5029345;28;20080;-69
2022/07/21 09:06:13;;;;;;;6.43;4.88;;;21.70;84.80;;;;;;5024263;28;20093;-69
2022/07/21 09:08:44;;;;;;;9.68;5.57;;;22.00;84.90;;;;;;5025993;28;20033;-69
2022/07/21 09:11:17;;;;;;;8.82;5.28;;;22.30;83.60;;;;;;5015278;28;20021;-69
2022/07/21 09:13:44;;;;;;;6.70;5.30;;;22.70;83.20;;;;;;5027170;28;20030;-69
2022/07/21 09:16:10;;;;;;;6.97;4.95;;;22.60;81.20;;;;;;5018312;28;20535;-71
2022/07/21 09:18:50;;;;;;;9.75;5.22;;;22.30;82.40;;;;;;5021488;28;20522;-70
2022/07/21 09:21:18;;;;;;;9.37;5.47;;;22.00;82.80;;;;;;5023689;28;20219;-70
2022/07/21 09:23:44;;;;;;;9.25;5.35;;;21.90;83.60;;;;;;5020098;28;20094;-72
2022/07/21 09:26:10;;;;;;;8.88;5.63;;;21.70;84.60;;;;;;5027675;28;20029;-71
2022/07/21 09:28:35;;;;;;;8.70;5.93;;;21.70;85.00;;;;;;5026169;28;20496;-70
2022/07/21 09:31:07;;;;;;;9.73;5.82;;;21.90;84.50;;;;;;5028062;28;20037;-71
2022/07/21 09:33:34;;;;;;;8.38;5.10;;;22.00;83.70;;;;;;5020111;28;20025;-71
2022/07/21 09:36:09;;;;;;;9.23;5.50;;;22.70;82.60;;;;;;5018267;28;20548;-71
2022/07/21 09:38:41;;;;;;;7.78;5.72;;;23.10;81.80;;;;;;5024139;28;20041;-72
2022/07/21 09:41:13;;;;;;;8.18;5.10;;;23.00;81.50;;;;;;5025776;28;20567;-69
2022/07/21 09:43:45;;;;;;;9.00;6.40;;;22.90;81.30;;;;;;5025456;28;20151;-70
2022/07/21 09:46:17;;;;;;;8.85;6.45;;;23.00;81.60;;;;;;5023153;28;20030;-70
2022/07/21 09:48:45;;;;;;;10.82;7.07;;;23.00;80.00;;;;;;5021796;28;20038;-70
2022/07/21 09:51:20;;;;;;;9.85;6.93;;;23.00;80.00;;;;;;5023126;28;20041;-71
2022/07/21 09:54:00;;;;;;;9.18;6.47;;;23.40;79.60;;;;;;5023229;28;20079;-70
2022/07/21 09:56:28;;;;;;;8.95;6.30;;;23.70;78.80;;;;;;5028671;28;20142;-70
2022/07/21 09:58:55;;;;;;;10.13;6.65;;;23.50;78.80;;;;;;5034234;28;20033;-70
2022/07/21 10:01:21;;;;;;;14.45;6.45;;;23.30;78.30;;;;;;5030278;28;20120;-71
2022/07/21 10:03:49;;;;;;;9.75;6.57;;;23.70;79.50;;;;;;5033773;28;20476;-70
2022/07/21 10:06:16;;;;;;;7.85;5.78;;;23.70;77.00;;;;;;5030549;28;20029;-69
2022/07/21 10:08:43;;;;;;;9.73;6.18;;;24.00;75.70;;;;;;5032556;28;20033;-70
2022/07/21 10:11:10;;;;;;;9.13;6.22;;;24.20;77.30;;;;;;5032792;28;20373;-71
2022/07/21 10:13:37;;;;;;;11.07;6.25;;;23.80;76.60;;;;;;5028083;28;20022;-70
2022/07/21 10:16:03;;;;;;;10.00;6.60;;;24.00;76.20;;;;;;5031200;28;20044;-70
2022/07/21 10:18:35;;;;;;;10.80;6.38;;;24.20;76.30;;;;;;5024089;28;20068;-69
2022/07/21 10:21:25;;;;;;;11.98;7.38;;;24.20;74.70;;;;;;5030643;28;20040;-70
2022/07/21 10:23:52;;;;;;;;;;;24.40;73.90;;;;;;5023214;28;20056;-69
2022/07/21 10:26:18;;;;;;;9.70;6.95;;;24.80;74.40;;;;;;5022239;28;20391;-70
2022/07/21 10:28:44;;;;;;;10.07;6.85;;;24.60;73.50;;;;;;5031795;28;20037;-69
2022/07/21 10:31:21;;;;;;;9.60;6.15;;;24.30;74.80;;;;;;5027651;28;20032;-70
2022/07/21 10:33:50;;;;;;;9.95;6.50;;;24.50;74.10;;;;;;5030048;28;20176;-69
2022/07/21 10:36:27;;;;;;;10.48;6.20;;;24.20;73.20;;;;;;5028274;28;20454;-70
2022/07/21 10:39:08;;;;;;;8.50;6.10;;;24.30;73.70;;;;;;5031363;28;20041;-69
2022/07/21 10:41:41;;;;;;;8.73;5.60;;;24.90;72.40;;;;;;5026188;28;20025;-69
2022/07/21 10:44:32;;;;;;;8.45;6.32;;;24.90;72.30;;;;;;5025493;28;20037;-68
2022/07/21 10:47:17;;;;;;;9.05;6.45;;;24.70;72.00;;;;;;5022673;28;20029;-68
2022/07/21 10:49:55;;;;;;;9.93;6.10;;;24.60;72.60;;;;;;5032595;28;20033;-68
2022/07/21 10:52:39;;;;;;;8.57;6.75;;;24.00;73.60;;;;;;5024508;28;20501;-68
2022/07/21 10:55:10;;;;;;;10.43;6.32;;;24.00;74.60;;;;;;5029711;28;20025;-68
2022/07/21 10:57:43;;;;;;;12.38;5.78;;;23.70;75.80;;;;;;5026710;28;20037;-69
2022/07/21 11:00:18;;;;;;;8.73;5.50;;;23.80;76.30;;;;;;5019629;28;20109;-68
2022/07/21 11:02:47;;;;;;;8.40;5.90;;;23.70;75.20;;;;;;5023601;28;20079;-69
2022/07/21 11:05:13;;;;;;;9.75;5.63;;;23.70;74.80;;;;;;5028321;28;20033;-68
2022/07/21 11:08:23;;;;;;;9.70;5.63;;;24.20;75.10;;;;;;5022543;28;20092;-68
2022/07/21 11:10:51;;;;;;;9.50;5.30;;;25.00;73.50;;;;;;5023402;28;20393;-68
2022/07/21 11:13:19;;;;;;;6.55;4.75;;;25.00;71.30;;;;;;5025180;28;20119;-69
2022/07/21 11:15:50;;;;;;;8.38;5.15;;;25.40;71.60;;;;;;5029462;28;20049;-69
2022/07/21 11:18:21;;;;;;;8.40;4.88;;;25.10;69.70;;;;;;5024716;28;20028;-69
2022/07/21 11:21:10;;;;;;;7.00;4.82;;;24.60;71.20;;;;;;5020961;28;20048;-69
2022/07/21 11:23:47;;;;;;;8.18;4.57;;;25.60;69.50;;;;;;5026751;28;20073;-68
2022/07/21 11:26:15;;;;;;;7.05;4.38;;;25.70;70.00;;;;;;5018049;28;20075;-68
2022/07/21 11:28:41;;;;;;;7.13;4.97;;;25.80;67.90;;;;;;5025632;28;20029;-68
2022/07/21 11:31:10;;;;;;;10.07;5.03;;;25.80;68.90;;;;;;5032490;28;20035;-68
2022/07/21 11:33:41;;;;;;;7.47;4.13;;;25.70;67.10;;;;;;5026114;28;20026;-68
2022/07/21 11:36:07;;;;;;;7.05;3.85;;;25.30;69.30;;;;;;5030624;28;20114;-68
2022/07/21 11:38:34;;;;;;;8.13;4.10;;;25.20;68.10;;;;;;5025829;28;20049;-68
2022/07/21 11:41:16;;;;;;;5.68;3.72;;;25.00;68.60;;;;;;5025599;28;20082;-68
2022/07/21 11:43:43;;;;;;;5.07;3.22;;;24.50;70.20;;;;;;5025967;28;20056;-68
2022/07/21 11:46:09;;;;;;;6.90;3.30;;;23.70;73.80;;;;;;5019801;28;20502;-68
2022/07/21 11:48:34;;;;;;;7.30;3.40;;;22.80;78.30;;;;;;5028183;28;20033;-68
2022/07/21 11:51:01;;;;;;;9.82;3.85;;;22.00;85.20;;;;;;5021427;28;20422;-68
2022/07/21 11:53:27;;;;;;;7.40;3.50;;;21.30;89.60;;;;;;5025159;28;20055;-68
2022/07/21 11:55:53;;;;;;;6.78;3.60;;;21.90;91.10;;;;;;5017392;28;20099;-68
2022/07/21 11:58:19;;;;;;;8.20;4.10;;;22.90;90.40;;;;;;5031260;28;20103;-68
2022/07/21 12:00:49;;;;;;;6.38;3.30;;;23.70;88.90;;;;;;5021370;28;20060;-68
2022/07/21 12:03:15;;;;;;;4.90;2.95;;;24.00;85.20;;;;;;5018972;28;20037;-69
2022/07/21 12:05:41;;;;;;;5.32;2.97;;;24.40;82.80;;;;;;5025419;28;20124;-68
2022/07/21 12:08:07;;;;;;;6.45;2.88;;;24.60;82.90;;;;;;5024892;28;20044;-68
2022/07/21 12:10:33;;;;;;;5.97;2.95;;;24.60;84.50;;;;;;5025370;28;20022;-68
2022/07/21 12:13:03;;;;;;;4.35;2.78;;;24.30;83.10;;;;;;5032431;28;20503;-68
2022/07/21 12:15:33;;;;;;;5.43;2.58;;;24.50;82.40;;;;;;5029763;28;20021;-68
2022/07/21 12:18:06;;;;;;;4.50;2.13;;;25.30;81.40;;;;;;5025711;28;20122;-68
2022/07/21 12:20:39;;;;;;;4.40;2.00;;;25.50;78.60;;;;;;5028770;28;20033;-68
2022/07/21 12:23:22;;;;;;;4.93;2.42;;;25.90;78.10;;;;;;5031030;28;20022;-68
2022/07/21 12:25:47;;;;;;;2.72;2.10;;;26.10;76.30;;;;;;5025677;28;20049;-68
2022/07/21 12:28:13;;;;;;;3.60;1.98;;;26.40;75.60;;;;;;5025376;28;20033;-68
2022/07/21 12:30:41;;;;;;;2.95;2.15;;;26.60;72.80;;;;;;5026594;28;20032;-68
2022/07/21 12:33:11;;;;;;;3.50;2.20;;;26.90;72.30;;;;;;5020528;28;20029;-68
2022/07/21 12:35:38;;;;;;;2.70;2.03;;;27.10;71.80;;;;;;5029502;28;20022;-68
2022/07/21 12:38:15;;;;;;;2.70;1.55;;;27.60;72.00;;;;;;5024379;28;20379;-68
2022/07/21 12:40:43;;;;;;;2.85;2.00;;;27.80;71.20;;;;;;5020138;28;20440;-68
2022/07/21 12:43:13;;;;;;;3.03;1.88;;;28.00;69.00;;;;;;5023031;28;20491;-68